sensor_id;sensor_type;location;lat;lon;timestamp;P1;durP1;ratioP1;P2;durP2;ratioP2
62258;SDS011;48241;48.824;10.102;2022-12-20T09:35:29;7.05;;;4.30;;
62258;SDS011;48241;48.824;10.102;2022-12-20T09:37:57;8.98;;;5.68;;
62258;SDS011;48241;48.824;10.102;2022-12-20T09:40:23;7.82;;;5.15;;
62258;SDS011;48241;48.824;10.102;2022-12-20T09:42:53;7.13;;;4.63;;
62258;SDS011;48241;48.824;10.102;2022-12-20T09:45:26;8.43;;;5.25;;
62258;SDS011;48241;48.824;10.102;2022-12-20T09:47:53;9.35;;;5.28;;
62258;SDS011;48241;48.824;10.102;2022-12-20T09:50:19;10.63;;;5.82;;
62258;SDS011;48241;48.824;10.102;2022-12-20T09:53:09;9.05;;;4.60;;
62258;SDS011;48241;48.824;10.102;2022-12-20T09:56:08;7.90;;;5.28;;
62258;SDS011;48241;48.824;10.102;2022-12-20T09:59:00;10.48;;;5.72;;
62258;SDS011;48241;48.824;10.102;2022-12-20T10:01:31;10.35;;;5.43;;
62258;SDS011;48241;48.824;10.102;2022-12-20T10:04:00;9.45;;;6.40;;
62258;SDS011;48241;48.824;10.102;2022-12-20T10:06:46;11.15;;;7.05;;
62258;SDS011;48241;48.824;10.102;2022-12-20T10:17:35;10.75;;;6.78;;
62258;SDS011;48241;48.824;10.102;2022-12-20T10:23:11;11.20;;;6.65;;
62258;SDS011;48241;48.824;10.102;2022-12-20T10:25:38;9.98;;;6.80;;
62258;SDS011;48241;48.824;10.102;2022-12-20T10:28:10;8.60;;;5.85;;
62258;SDS011;48241;48.824;10.102;2022-12-20T10:30:40;10.25;;;6.50;;
62258;SDS011;48241;48.824;10.102;2022-12-20T10:33:18;11.05;;;6.50;;
62258;SDS011;48241;48.824;10.102;2022-12-20T10:35:45;11.10;;;6.57;;
62258;SDS011;48241;48.824;10.102;2022-12-20T10:38:12;12.93;;;7.45;;
62258;SDS011;48241;48.824;10.102;2022-12-20T10:43:17;10.90;;;7.28;;
62258;SDS011;48241;48.824;10.102;2022-12-20T10:45:59;11.73;;;7.35;;
62258;SDS011;48241;48.824;10.102;2022-12-20T10:50:56;16.15;;;10.20;;
62258;SDS011;48241;48.824;10.102;2022-12-20T10:53:35;16.85;;;11.32;;
62258;SDS011;48241;48.824;10.102;2022-12-20T10:56:23;14.88;;;10.02;;
62258;SDS011;48241;48.824;10.102;2022-12-20T11:01:27;15.88;;;9.73;;
62258;SDS011;48241;48.824;10.102;2022-12-20T11:03:59;14.57;;;8.57;;
62258;SDS011;48241;48.824;10.102;2022-12-20T11:06:28;12.20;;;8.45;;
62258;SDS011;48241;48.824;10.102;2022-12-20T11:14:33;18.52;;;10.27;;
62258;SDS011;48241;48.824;10.102;2022-12-20T11:17:02;17.98;;;11.40;;
62258;SDS011;48241;48.824;10.102;2022-12-20T11:19:51;15.82;;;10.85;;
62258;SDS011;48241;48.824;10.102;2022-12-20T11:25:19;13.85;;;9.18;;
62258;SDS011;48241;48.824;10.102;2022-12-20T11:36:05;15.05;;;9.15;;
62258;SDS011;48241;48.824;10.102;2022-12-20T11:38:55;15.25;;;9.32;;
62258;SDS011;48241;48.824;10.102;2022-12-20T11:41:31;14.00;;;8.25;;
62258;SDS011;48241;48.824;10.102;2022-12-20T11:44:21;15.30;;;9.70;;
62258;SDS011;48241;48.824;10.102;2022-12-20T11:47:12;15.27;;;9.80;;
62258;SDS011;48241;48.824;10.102;2022-12-20T11:49:52;13.93;;;9.10;;
62258;SDS011;48241;48.824;10.102;2022-12-20T11:52:55;18.83;;;10.30;;
62258;SDS011;48241;48.824;10.102;2022-12-20T11:55:25;15.00;;;9.50;;
62258;SDS011;48241;48.824;10.102;2022-12-20T12:00:35;17.08;;;10.35;;
62258;SDS011;48241;48.824;10.102;2022-12-20T12:03:10;15.90;;;10.60;;
62258;SDS011;48241;48.824;10.102;2022-12-20T12:05:46;19.05;;;11.02;;
62258;SDS011;48241;48.824;10.102;2022-12-20T12:08:18;13.13;;;8.88;;
62258;SDS011;48241;48.824;10.102;2022-12-20T12:11:11;16.15;;;10.25;;
62258;SDS011;48241;48.824;10.102;2022-12-20T12:13:41;15.52;;;9.32;;
62258;SDS011;48241;48.824;10.102;2022-12-20T12:16:23;16.08;;;9.65;;
62258;SDS011;48241;48.824;10.102;2022-12-20T12:18:52;18.05;;;12.32;;
62258;SDS011;48241;48.824;10.102;2022-12-20T12:21:23;14.43;;;10.15;;
62258;SDS011;48241;48.824;10.102;2022-12-20T12:26:49;16.20;;;10.85;;
62258;SDS011;48241;48.824;10.102;2022-12-20T12:29:16;15.95;;;9.98;;
62258;SDS011;48241;48.824;10.102;2022-12-20T12:40:04;16.60;;;10.10;;
62258;SDS011;48241;48.824;10.102;2022-12-20T12:45:27;11.27;;;7.28;;
62258;SDS011;48241;48.824;10.102;2022-12-20T12:48:19;13.20;;;8.48;;
62258;SDS011;48241;48.824;10.102;2022-12-20T12:51:05;16.77;;;9.75;;
62258;SDS011;48241;48.824;10.102;2022-12-20T12:53:36;13.18;;;8.40;;
62258;SDS011;48241;48.824;10.102;2022-12-20T13:11:49;13.35;;;9.05;;
62258;SDS011;48241;48.824;10.102;2022-12-20T13:16:45;14.60;;;9.35;;
62258;SDS011;48241;48.824;10.102;2022-12-20T13:19:15;11.88;;;7.63;;
62258;SDS011;48241;48.824;10.102;2022-12-20T13:21:43;15.13;;;9.63;;
62258;SDS011;48241;48.824;10.102;2022-12-20T13:27:20;13.25;;;8.60;;
62258;SDS011;48241;48.824;10.102;2022-12-20T13:29:57;15.77;;;9.95;;
62258;SDS011;48241;48.824;10.102;2022-12-20T13:40:39;16.33;;;9.25;;
62258;SDS011;48241;48.824;10.102;2022-12-20T13:43:30;14.63;;;9.40;;
62258;SDS011;48241;48.824;10.102;2022-12-20T13:46:12;16.67;;;8.77;;
62258;SDS011;48241;48.824;10.102;2022-12-20T13:51:21;13.48;;;8.48;;
62258;SDS011;48241;48.824;10.102;2022-12-20T13:53:50;14.43;;;8.63;;
62258;SDS011;48241;48.824;10.102;2022-12-20T13:58:53;13.57;;;9.55;;
62258;SDS011;48241;48.824;10.102;2022-12-20T14:01:21;14.20;;;9.07;;
62258;SDS011;48241;48.824;10.102;2022-12-20T14:03:48;15.68;;;9.32;;
62258;SDS011;48241;48.824;10.102;2022-12-20T14:06:17;16.88;;;10.25;;
62258;SDS011;48241;48.824;10.102;2022-12-20T14:08:45;18.35;;;10.65;;
62258;SDS011;48241;48.824;10.102;2022-12-20T14:11:14;16.90;;;11.05;;
62258;SDS011;48241;48.824;10.102;2022-12-20T14:13:49;15.35;;;10.13;;
62258;SDS011;48241;48.824;10.102;2022-12-20T14:16:19;18.73;;;10.98;;
62258;SDS011;48241;48.824;10.102;2022-12-20T14:18:49;17.90;;;10.55;;
62258;SDS011;48241;48.824;10.102;2022-12-20T14:21:23;16.90;;;10.93;;
62258;SDS011;48241;48.824;10.102;2022-12-20T14:23:51;17.10;;;10.20;;
62258;SDS011;48241;48.824;10.102;2022-12-20T14:26:29;17.88;;;10.18;;
62258;SDS011;48241;48.824;10.102;2022-12-20T14:29:01;15.32;;;10.13;;
62258;SDS011;48241;48.824;10.102;2022-12-20T14:31:37;17.37;;;10.13;;
62258;SDS011;48241;48.824;10.102;2022-12-20T14:34:10;14.50;;;9.73;;
62258;SDS011;48241;48.824;10.102;2022-12-20T14:36:47;18.80;;;10.93;;
62258;SDS011;48241;48.824;10.102;2022-12-20T14:39:30;19.23;;;10.80;;
62258;SDS011;48241;48.824;10.102;2022-12-20T14:44:33;17.70;;;11.00;;
62258;SDS011;48241;48.824;10.102;2022-12-20T14:47:00;18.85;;;11.85;;
62258;SDS011;48241;48.824;10.102;2022-12-20T14:49:39;19.13;;;11.93;;
62258;SDS011;48241;48.824;10.102;2022-12-20T14:54:43;16.95;;;10.60;;
62258;SDS011;48241;48.824;10.102;2022-12-20T14:59:40;20.33;;;11.75;;
62258;SDS011;48241;48.824;10.102;2022-12-20T15:02:38;17.60;;;10.85;;
62258;SDS011;48241;48.824;10.102;2022-12-20T15:13:37;19.42;;;11.85;;
62258;SDS011;48241;48.824;10.102;2022-12-20T15:16:04;25.40;;;15.32;;
62258;SDS011;48241;48.824;10.102;2022-12-20T15:18:52;18.98;;;11.15;;
62258;SDS011;48241;48.824;10.102;2022-12-20T15:21:35;17.83;;;11.10;;
62258;SDS011;48241;48.824;10.102;2022-12-20T15:24:07;16.50;;;11.32;;
62258;SDS011;48241;48.824;10.102;2022-12-20T15:26:35;16.60;;;10.60;;
62258;SDS011;48241;48.824;10.102;2022-12-20T15:29:01;17.30;;;10.80;;
62258;SDS011;48241;48.824;10.102;2022-12-20T15:31:28;21.52;;;10.90;;
62258;SDS011;48241;48.824;10.102;2022-12-20T15:33:54;31.13;;;17.55;;
62258;SDS011;48241;48.824;10.102;2022-12-20T15:36:24;24.08;;;15.05;;
62258;SDS011;48241;48.824;10.102;2022-12-20T15:38:51;31.85;;;17.40;;
62258;SDS011;48241;48.824;10.102;2022-12-20T15:41:20;24.67;;;14.20;;
62258;SDS011;48241;48.824;10.102;2022-12-20T15:43:46;19.50;;;12.73;;
62258;SDS011;48241;48.824;10.102;2022-12-20T15:46:16;23.02;;;14.13;;
62258;SDS011;48241;48.824;10.102;2022-12-20T15:48:42;18.70;;;11.15;;
62258;SDS011;48241;48.824;10.102;2022-12-20T15:51:50;18.38;;;10.65;;
62258;SDS011;48241;48.824;10.102;2022-12-20T15:54:01;17.65;;;10.98;;
62258;SDS011;48241;48.824;10.102;2022-12-20T15:56:37;14.93;;;9.60;;
62258;SDS011;48241;48.824;10.102;2022-12-20T15:59:03;14.15;;;9.95;;
62258;SDS011;48241;48.824;10.102;2022-12-20T16:01:36;14.75;;;9.15;;
62258;SDS011;48241;48.824;10.102;2022-12-20T16:04:02;14.65;;;9.07;;
62258;SDS011;48241;48.824;10.102;2022-12-20T16:06:29;15.18;;;8.68;;
62258;SDS011;48241;48.824;10.102;2022-12-20T16:08:55;11.88;;;6.82;;
62258;SDS011;48241;48.824;10.102;2022-12-20T16:13:47;11.60;;;7.85;;
62258;SDS011;48241;48.824;10.102;2022-12-20T16:16:15;11.82;;;6.43;;
62258;SDS011;48241;48.824;10.102;2022-12-20T16:18:42;8.85;;;5.82;;
62258;SDS011;48241;48.824;10.102;2022-12-20T16:21:22;13.35;;;6.82;;
62258;SDS011;48241;48.824;10.102;2022-12-20T16:23:50;10.45;;;6.32;;
62258;SDS011;48241;48.824;10.102;2022-12-20T16:26:20;13.18;;;7.95;;
62258;SDS011;48241;48.824;10.102;2022-12-20T16:28:48;14.77;;;8.57;;
62258;SDS011;48241;48.824;10.102;2022-12-20T16:33:53;18.27;;;11.18;;
62258;SDS011;48241;48.824;10.102;2022-12-20T16:36:19;19.50;;;11.68;;
62258;SDS011;48241;48.824;10.102;2022-12-20T16:38:46;18.52;;;12.02;;
62258;SDS011;48241;48.824;10.102;2022-12-20T16:41:19;13.13;;;9.20;;
62258;SDS011;48241;48.824;10.102;2022-12-20T16:43:48;15.95;;;10.90;;
62258;SDS011;48241;48.824;10.102;2022-12-20T16:46:18;21.70;;;13.38;;
62258;SDS011;48241;48.824;10.102;2022-12-20T16:48:45;17.00;;;10.75;;
62258;SDS011;48241;48.824;10.102;2022-12-20T16:51:28;19.83;;;12.48;;
62258;SDS011;48241;48.824;10.102;2022-12-20T16:54:06;14.85;;;10.38;;
62258;SDS011;48241;48.824;10.102;2022-12-20T16:56:38;15.75;;;10.23;;
62258;SDS011;48241;48.824;10.102;2022-12-20T16:59:04;16.77;;;9.88;;
62258;SDS011;48241;48.824;10.102;2022-12-20T17:01:33;17.23;;;10.23;;
62258;SDS011;48241;48.824;10.102;2022-12-20T17:04:01;14.93;;;8.93;;
